Time;durP1;ratioP1;P1;durP2;ratioP2;P2;SDS_P1;SDS_P2;PMS_P1;PMS_P2;Temp;Humidity;BMP_temperature;BMP_pressure;BME280_temperature;BME280_humidity;BME280_pressure;Samples;Min_cycle;Max_cycle;Signal;HPM_P1;HPM_P2
2023/08/31 00:00:10;;;;;;;22.05;20.45;;;;;;;17.38;69.02;99398.09;4972978;28;97463;-84
2023/08/31 00:02:36;;;;;;;22.80;20.73;;;;;;;17.40;68.80;99407.63;4969075;28;97558;-84
2023/08/31 00:05:03;;;;;;;22.05;20.55;;;;;;;17.40;68.95;99412.94;4973640;28;98502;-85
2023/08/31 00:07:29;;;;;;;22.65;20.67;;;;;;;17.39;68.90;99398.00;4974594;28;96759;-85
2023/08/31 00:09:55;;;;;;;21.63;20.02;;;;;;;17.43;69.00;99403.91;4977744;28;96969;-85
2023/08/31 00:12:22;;;;;;;22.33;20.73;;;;;;;17.46;68.88;99406.31;4977457;28;99011;-84
2023/08/31 00:14:49;;;;;;;22.70;20.85;;;;;;;17.43;69.06;99398.59;4977303;28;97498;-84
2023/08/31 00:17:15;;;;;;;22.30;20.52;;;;;;;17.42;69.05;99402.19;4977688;28;96688;-84
2023/08/31 00:19:40;;;;;;;21.75;20.05;;;;;;;17.43;68.75;99407.38;4977826;28;96813;-84
2023/08/31 00:22:06;;;;;;;22.35;20.48;;;;;;;17.39;68.46;99413.91;4977727;28;99189;-84
2023/08/31 00:24:33;;;;;;;23.17;21.23;;;;;;;17.27;68.38;99406.00;4977574;28;98551;-84
2023/08/31 00:26:58;;;;;;;21.40;19.70;;;;;;;17.24;68.44;99401.78;4976342;28;97387;-84
2023/08/31 00:29:25;;;;;;;22.05;20.27;;;;;;;17.17;68.90;99409.38;4977588;28;96825;-84
2023/08/31 00:31:53;;;;;;;21.58;19.88;;;;;;;17.24;69.02;99408.91;4977133;28;99174;-85
2023/08/31 00:34:19;;;;;;;22.77;21.15;;;;;;;17.17;69.20;99403.22;4959643;28;100207;-85
2023/08/31 00:36:45;;;;;;;21.75;19.73;;;;;;;17.02;69.06;99380.53;4977301;28;96781;-85
2023/08/31 00:39:11;;;;;;;21.02;19.50;;;;;;;16.96;69.49;99382.69;4977238;28;97004;-85
2023/08/31 00:41:38;;;;;;;22.13;20.50;;;;;;;16.97;69.34;99387.00;4975860;28;100517;-85
2023/08/31 00:44:05;;;;;;;21.70;19.92;;;;;;;16.94;69.44;99386.41;4977096;28;98675;-85
2023/08/31 00:46:31;;;;;;;21.20;19.38;;;;;;;17.04;69.44;99390.03;4977932;28;96798;-84
2023/08/31 00:48:58;;;;;;;21.95;20.25;;;;;;;17.05;69.62;99390.91;4977158;28;97141;-85
2023/08/31 00:51:24;;;;;;;21.30;19.80;;;;;;;17.00;69.53;99388.59;4975312;28;99004;-84
2023/08/31 00:53:58;;;;;;;21.55;19.73;;;;;;;17.03;69.57;99390.16;4976774;28;97289;-85
2023/08/31 00:56:26;;;;;;;21.80;19.92;;;;;;;17.04;69.39;99392.69;4959745;28;96886;-85
2023/08/31 00:58:52;;;;;;;21.58;20.08;;;;;;;17.04;69.78;99400.63;4976894;28;97193;-85
2023/08/31 01:01:27;;;;;;;21.42;19.88;;;;;;;17.06;69.87;99403.19;4976354;28;98707;-84
2023/08/31 01:04:19;;;;;;;21.48;19.77;;;;;;;17.01;69.87;99392.09;4975073;28;100383;-85
2023/08/31 01:06:55;;;;;;;21.42;19.83;;;;;;;17.03;69.47;99395.47;4972439;28;97105;-85
2023/08/31 01:09:56;;;;;;;21.98;20.10;;;;;;;17.00;69.61;99401.00;4975679;28;96782;-85
2023/08/31 01:12:21;;;;;;;22.40;20.43;;;;;;;16.99;69.48;99394.88;4942128;28;98688;-85
2023/08/31 01:15:19;;;;;;;21.83;20.17;;;;;;;16.94;69.36;99397.84;4976180;28;98662;-85
2023/08/31 01:17:48;;;;;;;21.60;19.95;;;;;;;16.59;70.38;99399.59;4993510;28;96812;-85
2023/08/31 01:20:23;;;;;;;21.48;19.98;;;;;;;16.51;70.44;99384.25;4967447;28;97412;-84
2023/08/31 01:22:56;;;;;;;22.52;20.77;;;;;;;16.48;70.87;99387.13;4975110;28;98704;-85
2023/08/31 01:25:22;;;;;;;21.35;19.58;;;;;;;16.55;70.87;99398.09;4974677;28;99382;-85
2023/08/31 01:27:48;;;;;;;22.38;20.42;;;;;;;16.59;70.45;99399.59;4976546;28;96602;-85
2023/08/31 01:30:14;;;;;;;21.30;19.85;;;;;;;16.61;70.72;99395.00;4975083;28;96823;-84
2023/08/31 01:32:47;;;;;;;21.83;20.08;;;;;;;16.63;70.56;99398.41;4974783;28;99413;-85
2023/08/31 01:35:16;;;;;;;22.02;20.52;;;;;;;16.64;70.56;99392.13;4976212;28;98882;-85
2023/08/31 01:37:51;;;;;;;21.15;19.60;;;;;;;16.65;70.33;99397.31;4943655;28;96670;-85
2023/08/31 01:40:45;;;;;;;21.98;20.30;;;;;;;16.64;70.29;99389.47;4975065;28;96938;-85
2023/08/31 01:43:11;;;;;;;23.17;21.08;;;;;;;16.67;70.20;99395.41;4974339;28;98797;-84
2023/08/31 01:45:39;;;;;;;22.20;20.52;;;;;;;16.64;70.25;99387.69;4974738;28;98121;-85
2023/08/31 01:48:05;;;;;;;23.00;20.88;;;;;;;16.69;70.31;99388.19;4975319;28;96868;-85
2023/08/31 01:50:31;;;;;;;21.75;19.90;;;;;;;16.62;70.57;99383.47;4958484;28;97687;-85
2023/08/31 01:52:56;;;;;;;22.00;20.40;;;;;;;16.62;70.72;99386.13;4968000;28;99183;-85
2023/08/31 01:55:23;;;;;;;21.50;19.90;;;;;;;16.66;70.47;99387.56;4974482;28;100618;-85
2023/08/31 01:57:48;;;;;;;21.42;19.92;;;;;;;16.59;70.89;99383.69;4974849;28;97237;-85
2023/08/31 02:00:25;;;;;;;22.05;20.45;;;;;;;16.66;70.91;99390.22;4974915;28;97267;-85
2023/08/31 02:02:50;;;;;;;21.75;20.25;;;;;;;16.65;70.64;99388.53;4974439;28;100065;-84
2023/08/31 02:05:16;;;;;;;21.45;19.90;;;;;;;16.66;70.64;99393.72;4975749;28;97317;-85
2023/08/31 02:07:41;;;;;;;22.15;20.45;;;;;;;16.69;70.89;99405.88;4975732;28;97131;-84
2023/08/31 02:10:07;;;;;;;21.27;19.80;;;;;;;16.62;70.84;99383.47;4975854;28;96807;-85
2023/08/31 02:12:35;;;;;;;22.00;20.40;;;;;;;16.60;70.64;99385.38;4973241;28;98735;-85
2023/08/31 02:15:02;;;;;;;21.35;19.88;;;;;;;16.66;70.55;99390.22;4975421;28;98398;-84
2023/08/31 02:17:27;;;;;;;20.83;19.40;;;;;;;16.70;70.98;99394.34;4974062;28;96828;-85
2023/08/31 02:19:53;;;;;;;20.75;19.35;;;;;;;16.48;71.15;99398.56;4975815;28;96850;-84
2023/08/31 02:22:18;;;;;;;21.40;19.90;;;;;;;16.57;70.87;99405.00;4973832;28;100613;-85
2023/08/31 02:24:46;;;;;;;21.92;19.90;;;;;;;16.59;70.84;99403.09;4975016;28;97429;-84
2023/08/31 02:27:12;;;;;;;20.95;19.52;;;;;;;16.48;70.91;99400.38;4974541;28;96892;-83
2023/08/31 02:29:38;;;;;;;21.27;19.77;;;;;;;16.41;71.30;99393.84;4973614;28;97226;-84
2023/08/31 02:32:05;;;;;;;22.20;20.15;;;;;;;16.30;71.41;99398.09;4974860;28;98934;-85
2023/08/31 02:34:30;;;;;;;22.38;20.58;;;;;;;16.40;71.44;99405.38;4967777;28;100197;-85
2023/08/31 02:36:56;;;;;;;21.33;19.58;;;;;;;16.48;71.44;99410.97;4975489;28;97076;-85
2023/08/31 02:39:21;;;;;;;21.70;20.13;;;;;;;16.41;71.16;99401.78;4971503;28;97013;-85
2023/08/31 02:41:47;;;;;;;21.13;19.38;;;;;;;16.45;71.09;99409.38;4973783;28;100879;-84
2023/08/31 02:44:12;;;;;;;21.98;20.30;;;;;;;16.23;71.67;99399.50;4974848;28;98776;-85
2023/08/31 02:46:38;;;;;;;20.92;19.52;;;;;;;16.28;71.72;99412.41;4974230;28;96846;-84
2023/08/31 02:49:04;;;;;;;21.60;19.85;;;;;;;16.25;71.59;99409.97;4975481;28;96893;-85
2023/08/31 02:51:30;;;;;;;21.10;19.63;;;;;;;16.16;71.79;99413.28;4974822;28;98652;-84
2023/08/31 02:53:55;;;;;;;22.38;20.77;;;;;;;16.19;71.93;99408.63;4973535;28;100240;-84
2023/08/31 02:56:21;;;;;;;21.55;19.85;;;;;;;16.14;71.54;99405.44;4973853;28;96837;-84
2023/08/31 02:58:46;;;;;;;21.85;20.17;;;;;;;15.88;71.90;99398.50;4973774;28;96856;-85
2023/08/31 03:01:16;;;;;;;22.17;20.17;;;;;;;16.06;71.75;99398.06;4975028;28;97700;-84
2023/08/31 03:03:46;;;;;;;22.17;20.17;;;;;;;16.11;71.80;99391.59;4973354;28;100185;-84
2023/08/31 03:06:12;;;;;;;22.05;20.35;;;;;;;16.13;71.75;99411.69;4975533;28;97129;-85
2023/08/31 03:08:38;;;;;;;21.85;20.17;;;;;;;16.17;71.81;99399.09;4973433;28;97244;-84
2023/08/31 03:11:05;;;;;;;21.90;20.27;;;;;;;16.26;71.07;99401.06;4973699;28;100430;-85
2023/08/31 03:13:33;;;;;;;21.73;20.23;;;;;;;16.21;71.16;99389.97;4972597;28;97308;-84
2023/08/31 03:16:00;;;;;;;22.08;20.48;;;;;;;16.24;71.12;99395.91;4973934;28;97542;-84
2023/08/31 03:18:27;;;;;;;21.15;19.63;;;;;;;16.16;71.03;99390.31;4973626;28;97061;-85
2023/08/31 03:20:53;;;;;;;21.52;19.63;;;;;;;16.10;71.21;99411.09;4974129;28;98951;-85
2023/08/31 03:23:18;;;;;;;21.80;20.05;;;;;;;15.95;71.96;99415.66;4974651;28;97926;-84
2023/08/31 03:25:44;;;;;;;22.85;20.50;;;;;;;15.97;71.46;99404.03;4974602;28;97995;-84
2023/08/31 03:28:09;;;;;;;22.80;21.10;;;;;;;16.07;71.20;99406.84;4973926;28;96945;-85
2023/08/31 03:30:35;;;;;;;21.17;19.67;;;;;;;16.07;71.39;99397.09;4972970;28;100025;-85
2023/08/31 03:33:02;;;;;;;22.40;20.80;;;;;;;16.13;71.48;99413.50;4965894;28;100394;-86
2023/08/31 03:35:28;;;;;;;21.83;20.10;;;;;;;16.18;71.21;99406.94;4974821;28;96754;-84
2023/08/31 03:37:56;;;;;;;21.02;19.42;;;;;;;16.16;71.11;99408.84;4973676;28;96908;-84
2023/08/31 03:40:22;;;;;;;21.77;20.00;;;;;;;16.15;70.78;99404.50;4973737;28;99193;-85
2023/08/31 03:42:50;;;;;;;22.50;20.80;;;;;;;16.19;71.08;99400.66;4974831;28;100197;-85
2023/08/31 03:45:15;;;;;;;22.20;20.55;;;;;;;16.13;70.82;99392.34;4977715;28;96672;-83
2023/08/31 03:47:41;;;;;;;22.35;20.30;;;;;;;16.20;71.17;99406.81;4978136;28;96839;-84
2023/08/31 03:50:08;;;;;;;21.50;19.83;;;;;;;16.16;70.86;99410.63;4977152;28;98724;-84
2023/08/31 03:52:33;;;;;;;21.85;20.13;;;;;;;16.10;71.20;99403.97;4976460;28;98545;-85
2023/08/31 03:54:59;;;;;;;21.27;19.70;;;;;;;16.10;71.09;99400.50;4977815;28;96892;-84
2023/08/31 03:57:24;;;;;;;22.33;20.52;;;;;;;16.03;71.09;99387.69;4976666;28;96899;-84
2023/08/31 03:59:52;;;;;;;22.10;20.15;;;;;;;15.94;71.69;99406.88;4975846;28;98522;-86
2023/08/31 04:02:18;;;;;;;23.73;21.55;;;;;;;15.94;71.41;99403.38;4977944;28;97303;-84
2023/08/31 04:04:43;;;;;;;22.27;20.38;;;;;;;15.95;71.63;99382.09;4977917;28;96819;-84
2023/08/31 04:07:09;;;;;;;22.20;20.42;;;;;;;15.94;71.40;99391.00;4976374;28;96953;-85
2023/08/31 04:09:37;;;;;;;22.25;20.58;;;;;;;15.86;71.61;99403.94;4976470;28;98557;-84
2023/08/31 04:12:03;;;;;;;23.27;21.38;;;;;;;15.85;71.62;99412.78;4975714;28;100750;-84
2023/08/31 04:14:30;;;;;;;22.92;21.20;;;;;;;15.73;71.91;99390.69;4976249;28;97402;-85
2023/08/31 04:16:55;;;;;;;22.17;20.58;;;;;;;15.72;72.34;99402.25;4977980;28;96701;-86
2023/08/31 04:19:21;;;;;;;21.77;20.00;;;;;;;15.60;72.39;99400.41;4976702;28;98896;-85
2023/08/31 04:21:47;;;;;;;22.25;20.42;;;;;;;15.74;72.16;99403.00;4967250;28;98293;-84
2023/08/31 04:24:13;;;;;;;22.92;21.23;;;;;;;15.84;71.92;99398.72;4976608;28;96795;-84
2023/08/31 04:26:38;;;;;;;22.38;20.50;;;;;;;15.94;71.62;99396.31;4978020;28;96646;-84
2023/08/31 04:29:05;;;;;;;21.35;19.90;;;;;;;15.92;71.53;99403.50;4976469;28;99276;-83
2023/08/31 04:31:32;;;;;;;23.58;21.65;;;;;;;16.09;71.29;99407.59;4976920;28;98888;-85
2023/08/31 04:33:57;;;;;;;23.05;21.38;;;;;;;16.09;71.26;99394.34;4970553;28;96578;-84
2023/08/31 04:36:23;;;;;;;22.85;20.98;;;;;;;16.21;71.13;99400.56;4977236;28;96833;-84
2023/08/31 04:38:49;;;;;;;22.88;20.92;;;;;;;16.33;70.40;99402.34;4976281;28;98803;-84
2023/08/31 04:41:15;;;;;;;22.20;20.15;;;;;;;16.32;70.31;99410.38;4976889;28;98450;-83
2023/08/31 04:43:40;;;;;;;22.15;20.58;;;;;;;16.39;70.26;99401.88;4977200;28;97314;-84
2023/08/31 04:46:06;;;;;;;22.92;21.00;;;;;;;16.47;69.80;99401.34;4977213;28;96919;-84
2023/08/31 04:48:32;;;;;;;22.10;20.60;;;;;;;16.52;69.84;99407.13;4976489;28;98766;-84
2023/08/31 04:50:58;;;;;;;21.85;20.35;;;;;;;16.46;69.47;99413.75;4964891;28;98568;-84
2023/08/31 04:53:24;;;;;;;22.48;20.88;;;;;;;16.42;69.81;99422.84;4975785;28;96672;-85
2023/08/31 04:55:49;;;;;;;23.10;21.20;;;;;;;16.33;70.31;99417.38;4977010;28;96807;-85
2023/08/31 04:58:15;;;;;;;23.20;21.27;;;;;;;16.37;69.66;99411.72;4976277;28;98871;-84
2023/08/31 05:00:40;;;;;;;7.03;4.75;;;;;;;16.46;68.95;99403.16;4976351;28;98641;-84
2023/08/31 05:03:06;;;;;;;8.43;4.90;;;;;;;16.57;69.33;99425.34;4976944;28;97172;-83
2023/08/31 05:05:32;;;;;;;9.57;4.70;;;;;;;16.66;69.28;99438.75;4969595;28;97241;-83
2023/08/31 05:07:58;;;;;;;5.93;4.78;;;;;;;16.81;68.56;99431.50;4976643;28;98669;-83
2023/08/31 05:10:24;;;;;;;5.18;4.40;;;;;;;17.02;68.24;99438.84;4975967;28;98406;-84
2023/08/31 05:12:49;;;;;;;7.68;5.40;;;;;;;17.00;67.96;99441.59;4977102;28;96810;-84
2023/08/31 05:15:16;;;;;;;7.53;4.63;;;;;;;16.93;68.22;99443.03;4973481;28;97281;-84
2023/08/31 05:17:41;;;;;;;9.18;5.10;;;;;;;17.02;67.93;99445.00;4976505;28;98917;-84
2023/08/31 05:20:09;;;;;;;7.63;4.70;;;;;;;17.14;67.78;99445.88;4976083;28;98413;-85
2023/08/31 05:22:35;;;;;;;6.75;4.10;;;;;;;17.42;67.15;99453.47;4975036;28;96898;-85
2023/08/31 05:25:01;;;;;;;5.18;4.22;;;;;;;17.53;66.74;99449.97;4976022;28;97129;-84
2023/08/31 05:27:26;;;;;;;9.90;4.72;;;;;;;17.60;67.04;99463.63;4975537;28;97691;-85
2023/08/31 05:29:52;;;;;;;10.65;5.00;;;;;;;17.62;66.60;99474.94;4962252;28;98480;-85
2023/08/31 05:32:17;;;;;;;9.50;5.45;;;;;;;17.71;66.46;99465.44;4976103;28;96883;-84
2023/08/31 05:34:43;;;;;;;10.00;4.60;;;;;;;17.70;66.30;99467.25;4962691;28;96838;-85
2023/08/31 05:37:08;;;;;;;7.32;5.57;;;;;;;17.72;65.70;99448.56;4976137;28;98582;-84
2023/08/31 05:39:34;;;;;;;8.45;4.45;;;;;;;17.82;65.82;99462.84;4975800;28;98445;-84
2023/08/31 05:42:00;;;;;;;8.05;4.95;;;;;;;17.97;65.69;99474.06;4976472;28;96790;-84
2023/08/31 05:44:26;;;;;;;9.00;5.03;;;;;;;18.09;65.42;99462.47;4976245;28;96985;-85
2023/08/31 05:46:51;;;;;;;14.50;5.15;;;;;;;18.00;65.21;99449.94;4975526;28;97673;-84
2023/08/31 05:49:17;;;;;;;5.75;4.97;;;;;;;18.31;64.82;99472.25;4975890;28;98364;-85
2023/08/31 05:51:42;;;;;;;13.20;4.75;;;;;;;18.37;64.45;99477.06;4976435;28;97950;-84
2023/08/31 05:54:11;;;;;;;7.90;4.78;;;;;;;18.42;64.27;99476.72;4975838;28;96866;-84
2023/08/31 05:56:39;;;;;;;7.75;5.35;;;;;;;18.48;63.89;99474.41;4978969;28;98804;-84
2023/08/31 05:59:07;;;;;;;10.50;5.05;;;;;;;18.54;63.68;99486.38;4979543;28;98694;-84
2023/08/31 06:01:37;;;;;;;11.93;4.93;;;;;;;18.69;63.42;99490.44;4978836;28;96826;-84
2023/08/31 06:04:06;;;;;;;6.35;4.85;;;;;;;18.91;62.83;99494.91;4976022;28;97036;-84
2023/08/31 06:06:32;;;;;;;6.57;5.78;;;;;;;18.94;62.83;99499.13;4975308;28;98772;-85
2023/08/31 06:08:58;;;;;;;6.60;5.50;;;;;;;19.05;62.41;99495.56;4974689;28;98256;-83
2023/08/31 06:11:23;;;;;;;13.43;5.97;;;;;;;19.45;61.57;99493.94;4963802;28;96739;-85
2023/08/31 06:13:49;;;;;;;7.07;5.32;;;;;;;19.56;61.09;99485.06;4975728;28;97162;-85
2023/08/31 06:16:14;;;;;;;13.38;5.20;;;;;;;19.70;60.92;99491.06;4976020;28;98653;-85
2023/08/31 06:18:40;;;;;;;6.15;4.93;;;;;;;20.48;58.97;99489.63;4975279;28;98811;-84
2023/08/31 06:21:05;;;;;;;7.45;5.03;;;;;;;21.56;56.22;99486.97;4975915;28;97089;-85
2023/08/31 06:23:31;;;;;;;8.98;4.40;;;;;;;22.82;53.24;99489.16;4975740;28;97768;-84
2023/08/31 06:25:57;;;;;;;6.25;4.90;;;;;;;23.56;51.68;99484.53;4975104;28;97536;-84
2023/08/31 06:28:22;;;;;;;6.28;4.57;;;;;;;24.51;49.50;99487.31;4968090;28;98657;-85
2023/08/31 06:30:48;;;;;;;5.78;4.85;;;;;;;25.44;47.74;99479.13;4976312;28;97170;-85
2023/08/31 06:33:14;;;;;;;6.25;4.35;;;;;;;26.03;45.52;99481.59;4976358;28;96818;-84
2023/08/31 06:35:40;;;;;;;8.98;4.88;;;;;;;24.93;47.51;99492.66;4974697;28;98119;-85
2023/08/31 06:38:05;;;;;;;13.15;4.65;;;;;;;26.78;44.27;99499.97;4975728;28;98441;-85
2023/08/31 06:40:31;;;;;;;6.93;4.50;;;;;;;29.10;40.17;99492.00;4975566;28;97373;-85
2023/08/31 06:42:57;;;;;;;7.65;4.65;;;;;;;30.73;37.51;99501.72;4975842;28;97100;-83
2023/08/31 06:45:22;;;;;;;7.32;4.30;;;;;;;32.06;35.39;99509.25;4985224;28;98766;-83
2023/08/31 06:47:48;;;;;;;67.53;11.75;;;;;;;33.24;32.96;99492.72;4980336;28;98235;-83
2023/08/31 06:50:13;;;;;;;42.72;8.15;;;;;;;31.28;35.32;99493.56;4975647;28;96796;-83
2023/08/31 06:52:41;;;;;;;13.48;4.90;;;;;;;32.32;33.12;99502.91;4976894;28;96877;-83
2023/08/31 06:55:06;;;;;;;13.20;4.63;;;;;;;30.62;35.15;99500.44;4978513;28;99110;-83
2023/08/31 06:57:32;;;;;;;5.03;4.47;;;;;;;29.13;37.83;99505.13;4974908;28;98285;-82
2023/08/31 06:59:58;;;;;;;5.57;4.57;;;;;;;29.34;37.23;99507.00;4978394;28;96938;-83
2023/08/31 07:02:26;;;;;;;6.60;4.55;;;;;;;31.56;34.57;99498.81;4989311;28;96797;-82
2023/08/31 07:04:52;;;;;;;5.80;4.35;;;;;;;34.30;31.27;99499.13;4969319;28;99192;-83
2023/08/31 07:07:18;;;;;;;10.77;4.68;;;;;;;35.42;29.10;99502.28;4974440;28;98254;-83
2023/08/31 07:09:45;;;;;;;6.60;4.50;;;;;;;37.00;27.63;99495.97;4977946;28;97217;-83
2023/08/31 07:12:11;;;;;;;5.88;4.22;;;;;;;37.96;26.65;99507.81;4974780;28;96983;-83
2023/08/31 07:14:36;;;;;;;7.93;4.10;;;;;;;38.50;25.45;99512.66;4974499;28;98965;-83
2023/08/31 07:17:02;;;;;;;4.93;4.22;;;;;;;39.44;24.76;99507.94;4972862;28;98831;-84
2023/08/31 07:19:28;;;;;;;4.18;3.78;;;;;;;40.33;23.81;99504.47;4974489;28;96824;-83
2023/08/31 07:21:56;;;;;;;6.13;4.03;;;;;;;40.96;23.13;99504.44;4973478;28;97171;-83
2023/08/31 07:24:25;;;;;;;4.07;3.67;;;;;;;41.63;22.30;99502.63;4987127;28;100932;-82
2023/08/31 07:26:50;;;;;;;9.40;4.33;;;;;;;41.27;21.93;99510.00;4968384;28;98543;-82
2023/08/31 07:29:16;;;;;;;9.10;4.78;;;;;;;41.16;21.71;99507.25;4974796;28;98129;-83
2023/08/31 07:31:42;;;;;;;4.63;3.95;;;;;;;41.69;21.60;99506.16;4973763;28;97262;-83
2023/08/31 07:34:07;;;;;;;4.20;3.85;;;;;;;35.83;26.90;99525.97;4978744;28;98698;-83
2023/08/31 07:36:33;;;;;;;4.20;3.80;;;;;;;32.31;31.74;99531.94;4975994;28;98305;-83
2023/08/31 07:38:59;;;;;;;7.53;3.92;;;;;;;30.00;35.21;99540.03;4974246;28;96943;-83
2023/08/31 07:41:24;;;;;;;6.13;4.65;;;;;;;29.41;36.30;99543.03;4977618;28;96809;-83
2023/08/31 07:43:50;;;;;;;6.18;5.15;;;;;;;28.33;38.19;99547.31;4973470;28;97823;-83
2023/08/31 07:46:15;;;;;;;5.57;5.05;;;;;;;27.66;39.58;99547.22;4974065;28;98752;-83
2023/08/31 07:48:42;;;;;;;6.60;4.50;;;;;;;27.39;40.12;99552.16;4973573;28;96856;-82
2023/08/31 07:51:08;;;;;;;6.00;5.00;;;;;;;27.40;40.24;99550.28;4974608;28;96946;-83
2023/08/31 07:53:33;;;;;;;5.35;4.80;;;;;;;28.24;38.80;99552.94;4973625;28;98641;-82
2023/08/31 07:55:59;;;;;;;5.70;5.10;;;;;;;27.09;40.99;99551.97;4976533;28;98603;-83
2023/08/31 07:58:26;;;;;;;5.35;4.85;;;;;;;26.99;41.64;99558.59;4973950;28;97592;-82
2023/08/31 08:00:55;;;;;;;7.18;5.43;;;;;;;27.33;41.11;99566.34;4973071;28;96798;-82
2023/08/31 08:03:24;;;;;;;5.85;4.50;;;;;;;32.56;33.14;99556.56;4972852;28;99198;-82
2023/08/31 08:05:50;;;;;;;10.63;4.55;;;;;;;31.48;33.65;99559.53;4966323;28;98907;-82
2023/08/31 08:08:15;;;;;;;6.20;4.60;;;;;;;29.33;36.98;99560.22;4973870;28;96816;-82
2023/08/31 08:10:42;;;;;;;6.07;4.28;;;;;;;28.11;39.01;99572.47;4973794;28;96948;-83
2023/08/31 08:13:08;;;;;;;6.22;4.78;;;;;;;26.23;41.82;99576.16;4966444;28;98939;-82
2023/08/31 08:15:34;;;;;;;6.65;4.80;;;;;;;25.02;44.45;99565.97;4973282;28;98713;-81
2023/08/31 08:17:59;;;;;;;6.82;4.72;;;;;;;24.76;45.58;99585.69;4973224;28;96993;-84
2023/08/31 08:20:25;;;;;;;7.05;4.60;;;;;;;25.11;45.23;99582.94;4961276;28;96838;-84
2023/08/31 08:22:53;;;;;;;4.80;4.40;;;;;;;25.22;44.68;99577.28;4969242;28;99002;-85
2023/08/31 08:25:19;;;;;;;5.85;4.50;;;;;;;27.54;40.54;99576.47;4970687;28;98788;-84
2023/08/31 08:27:45;;;;;;;4.78;4.10;;;;;;;26.69;41.99;99579.94;4974887;28;96885;-86
2023/08/31 08:30:11;;;;;;;4.07;3.67;;;;;;;28.47;38.32;99564.53;4976354;28;97172;-82
2023/08/31 08:32:37;;;;;;;5.30;3.80;;;;;;;26.71;40.75;99585.16;4976908;28;99106;-87
2023/08/31 08:35:02;;;;;;;8.07;4.18;;;;;;;25.17;43.72;99591.22;4976771;28;98411;-82
2023/08/31 08:37:29;;;;;;;4.82;4.20;;;;;;;24.38;44.74;99584.28;4977042;28;96818;-82
2023/08/31 08:39:54;;;;;;;5.18;3.92;;;;;;;23.88;46.04;99601.88;4976619;28;96968;-82
2023/08/31 08:42:24;;;;;;;5.78;4.15;;;;;;;23.67;47.30;99603.97;4976876;28;98940;-81
2023/08/31 08:44:50;;;;;;;5.43;3.90;;;;;;;23.40;47.71;99602.22;4975276;28;98855;-81
2023/08/31 08:47:15;;;;;;;4.50;3.95;;;;;;;23.28;48.60;99615.81;4975947;28;96715;-82
2023/08/31 08:49:41;;;;;;;5.60;4.60;;;;;;;23.04;49.46;99618.22;4975581;28;97195;-82
2023/08/31 08:52:07;;;;;;;5.53;3.97;;;;;;;22.81;50.43;99633.81;4969230;28;98643;-84
2023/08/31 08:54:33;;;;;;;5.80;4.03;;;;;;;22.67;51.10;99635.13;4973819;28;98644;-88
2023/08/31 08:57:00;;;;;;;7.90;3.95;;;;;;;22.68;51.63;99639.47;4973003;28;96869;-84
2023/08/31 08:59:27;;;;;;;5.32;3.90;;;;;;;22.67;51.87;99644.97;4973932;28;97482;-85
2023/08/31 09:01:53;;;;;;;11.00;3.72;;;;;;;22.56;51.77;99636.13;4974600;28;99219;-85
2023/08/31 09:04:19;;;;;;;9.10;3.25;;;;;;;22.29;51.87;99641.41;4974814;28;98531;-84
2023/08/31 09:06:44;;;;;;;5.90;2.30;;;;;;;22.03;52.10;99649.16;4975183;28;96826;-84
2023/08/31 09:09:10;;;;;;;4.57;2.95;;;;;;;21.97;51.98;99655.91;4975254;28;98114;-85
2023/08/31 09:11:36;;;;;;;3.83;1.92;;;;;;;21.65;51.89;99641.00;4974857;28;98488;-84
2023/08/31 09:14:17;;;;;;;4.78;2.40;;;;;;;21.72;51.65;99653.78;4974484;28;98334;-84
2023/08/31 09:16:49;;;;;;;;;;;;;;;21.68;51.47;99662.09;4969053;28;97226;-83
2023/08/31 09:19:27;;;;;;;3.00;1.73;;;;;;;21.50;51.19;99663.75;4977261;28;97569;-83
2023/08/31 09:21:56;;;;;;;2.72;1.38;;;;;;;21.37;51.05;99668.50;4973979;28;98745;-83
2023/08/31 09:24:23;;;;;;;2.55;2.05;;;;;;;21.36;51.47;99666.78;4972847;28;98593;-84
2023/08/31 09:26:52;;;;;;;6.13;1.90;;;;;;;21.25;51.76;99667.72;4976248;28;96710;-84
2023/08/31 09:29:18;;;;;;;7.53;2.13;;;;;;;21.18;52.07;99695.97;4976846;28;96819;-83
2023/08/31 09:31:45;;;;;;;4.40;2.38;;;;;;;21.10;52.26;99691.28;4974426;28;99004;-83
2023/08/31 09:34:11;;;;;;;8.27;2.38;;;;;;;20.94;52.60;99689.13;4969606;28;98835;-81
2023/08/31 09:36:37;;;;;;;4.70;2.20;;;;;;;20.84;53.63;99692.72;4975068;28;97214;-81
2023/08/31 09:39:04;;;;;;;4.25;2.05;;;;;;;20.71;54.12;99700.91;4968731;28;96800;-81
2023/08/31 09:41:30;;;;;;;3.03;1.92;;;;;;;20.65;54.18;99704.94;4974411;28;98999;-82
2023/08/31 09:43:55;;;;;;;3.45;2.17;;;;;;;20.52;54.99;99702.50;4976037;28;98635;-82
2023/08/31 09:46:21;;;;;;;5.82;2.35;;;;;;;20.58;55.17;99727.78;4966616;28;97245;-79
2023/08/31 09:48:47;;;;;;;7.05;2.47;;;;;;;20.50;55.89;99732.91;4971796;28;96959;-81
2023/08/31 09:51:14;;;;;;;10.02;2.65;;;;;;;20.39;56.58;99728.50;4969412;28;98911;-77
2023/08/31 09:53:41;;;;;;;3.88;2.15;;;;;;;20.34;56.39;99734.19;4971318;28;98830;-78
2023/08/31 09:56:07;;;;;;;4.68;2.60;;;;;;;20.43;56.10;99727.25;4964429;28;97201;-79
2023/08/31 09:58:32;;;;;;;3.28;2.35;;;;;;;20.59;56.28;99732.13;4972723;28;96923;-81
2023/08/31 10:00:58;;;;;;;4.82;2.65;;;;;;;20.59;56.81;99737.47;4972085;28;99202;-81
2023/08/31 10:03:26;;;;;;;4.70;2.38;;;;;;;20.64;56.60;99732.59;4973554;28;98252;-81
2023/08/31 10:05:51;;;;;;;3.00;2.38;;;;;;;20.64;56.43;99723.75;4979999;28;97173;-79
2023/08/31 10:08:18;;;;;;;6.88;2.42;;;;;;;20.69;56.41;99738.41;4979466;28;96842;-79
2023/08/31 10:10:44;;;;;;;5.28;2.50;;;;;;;20.71;56.08;99733.78;4969811;28;98820;-80
2023/08/31 10:13:11;;;;;;;3.85;2.38;;;;;;;20.74;56.54;99740.66;4973728;28;98564;-88
2023/08/31 10:15:36;;;;;;;6.68;2.70;;;;;;;20.75;56.28;99745.03;4973118;28;97076;-83
2023/08/31 10:18:04;;;;;;;7.25;2.35;;;;;;;20.65;56.61;99733.44;4973965;28;97140;-82
2023/08/31 10:20:33;;;;;;;3.80;2.67;;;;;;;20.78;56.29;99755.44;4973327;28;98837;-83
2023/08/31 10:23:03;;;;;;;3.50;2.05;;;;;;;20.77;56.36;99759.94;4973206;28;98988;-81
2023/08/31 10:25:54;;;;;;;4.82;2.50;;;;;;;20.72;56.43;99751.47;4971015;28;97398;-81
2023/08/31 10:28:28;;;;;;;3.57;2.27;;;;;;;20.50;56.88;99746.22;4972204;28;97317;-83
2023/08/31 10:31:03;;;;;;;3.15;2.28;;;;;;;20.43;56.75;99761.91;4970596;28;98616;-81
2023/08/31 10:33:39;;;;;;;4.43;2.28;;;;;;;20.52;56.64;99755.81;4969677;28;98736;-82
2023/08/31 10:36:09;;;;;;;4.75;2.05;;;;;;;20.66;56.20;99764.47;4969176;28;97427;-81
2023/08/31 10:38:37;;;;;;;3.05;2.28;;;;;;;20.63;56.61;99759.41;4973227;28;96891;-82
2023/08/31 10:41:08;;;;;;;3.47;2.40;;;;;;;20.65;56.24;99754.78;4976491;28;97127;-81
2023/08/31 10:43:51;;;;;;;4.47;2.30;;;;;;;20.91;56.45;99747.22;4975670;28;97183;-70
2023/08/31 10:46:28;;;;;;;8.57;2.13;;;;;;;21.28;55.67;99744.84;4971882;28;97206;-76
2023/08/31 10:49:09;;;;;;;2.42;1.63;;;;;;;21.95;52.87;99742.53;4973740;28;97100;-81
2023/08/31 10:51:40;;;;;;;5.25;2.15;;;;;;;22.46;51.54;99738.78;4972391;28;99002;-81
2023/08/31 10:54:21;;;;;;;3.20;2.30;;;;;;;22.64;50.79;99746.91;4972963;28;98913;-82
2023/08/31 10:57:10;;;;;;;3.00;1.90;;;;;;;23.07;49.19;99750.88;4971922;28;97121;-82
2023/08/31 10:59:48;;;;;;;4.78;2.75;;;;;;;23.67;48.28;99744.13;4973870;28;96762;-82
2023/08/31 11:02:36;;;;;;;3.85;2.42;;;;;;;23.52;48.66;99745.63;4975135;28;98873;-81
2023/08/31 11:05:16;;;;;;;4.57;1.80;;;;;;;23.36;48.68;99737.38;4969742;28;98501;-79
2023/08/31 11:07:43;;;;;;;3.58;1.67;;;;;;;23.33;48.33;99749.25;4965504;28;97400;-78
2023/08/31 11:10:16;;;;;;;3.95;1.83;;;;;;;23.37;48.46;99739.09;4973235;28;97167;-85
2023/08/31 11:12:43;;;;;;;3.38;1.80;;;;;;;23.27;47.82;99734.63;4973391;28;99078;-85
2023/08/31 11:15:11;;;;;;;4.32;2.22;;;;;;;23.33;48.29;99740.34;4975618;28;98647;-86
2023/08/31 11:17:38;;;;;;;6.28;2.00;;;;;;;23.41;48.79;99725.25;4963223;28;97130;-74
2023/08/31 11:20:05;;;;;;;5.78;2.40;;;;;;;23.63;47.97;99725.84;4976041;28;96808;-73
2023/08/31 11:22:33;;;;;;;5.63;2.25;;;;;;;23.96;47.35;99727.03;4975702;28;96860;-73
2023/08/31 11:25:00;;;;;;;3.45;2.00;;;;;;;24.38;47.03;99727.25;4971702;28;97976;-74
2023/08/31 11:27:25;;;;;;;2.10;1.65;;;;;;;24.15;47.41;99721.53;4973479;28;96842;-74